createdAt,value
2019-02-17T00:02:26.949Z,8.50
2019-02-17T00:04:57.025Z,8.50
2019-02-17T00:07:27.102Z,8.50
2019-02-17T00:09:57.499Z,8.50
2019-02-17T00:12:27.536Z,8.50
2019-02-17T00:14:57.883Z,8.50
2019-02-17T00:17:28.644Z,8.50
2019-02-17T00:19:58.669Z,8.50
2019-02-17T00:22:28.923Z,8.50
2019-02-17T00:24:59.115Z,8.50
2019-02-17T00:27:30.104Z,8.50
2019-02-17T00:30:00.481Z,8.50
2019-02-17T00:32:30.789Z,8.60
2019-02-17T00:35:00.843Z,8.60
2019-02-17T00:37:30.874Z,8.70
2019-02-17T00:40:01.315Z,8.60
2019-02-17T00:42:31.237Z,8.60
2019-02-17T00:45:01.176Z,8.60
2019-02-17T00:47:31.214Z,8.60
2019-02-17T00:50:01.242Z,8.60
2019-02-17T00:52:31.286Z,8.60
2019-02-17T00:55:01.160Z,8.60
2019-02-17T00:57:31.088Z,8.50
2019-02-17T01:00:01.130Z,8.50
2019-02-17T01:02:31.281Z,8.50
2019-02-17T01:05:01.252Z,8.50
2019-02-17T01:07:31.124Z,8.50
2019-02-17T01:10:01.655Z,8.50
2019-02-17T01:12:31.875Z,8.50
2019-02-17T01:15:01.977Z,8.50
2019-02-17T01:17:31.941Z,8.50
2019-02-17T01:20:02.039Z,8.50
2019-02-17T01:22:33.336Z,8.50
2019-02-17T01:25:03.494Z,8.50
2019-02-17T01:27:33.380Z,8.50
2019-02-17T01:30:03.859Z,8.40
2019-02-17T01:32:33.899Z,8.40
2019-02-17T01:35:04.149Z,8.50
2019-02-17T01:37:34.414Z,8.40
2019-02-17T01:40:05.269Z,8.40
2019-02-17T01:42:35.653Z,8.40
2019-02-17T01:45:06.401Z,8.30
2019-02-17T01:47:36.679Z,8.30
2019-02-17T01:50:13.719Z,8.30
2019-02-17T01:52:43.999Z,8.30
2019-02-17T01:55:14.401Z,8.20
2019-02-17T01:57:44.515Z,8.10
2019-02-17T02:00:15.062Z,8.00
2019-02-17T02:02:45.187Z,7.90
2019-02-17T02:05:15.714Z,7.90
2019-02-17T02:07:45.698Z,7.80
2019-02-17T02:10:16.007Z,7.80
2019-02-17T02:12:48.443Z,7.70
2019-02-17T02:15:18.549Z,7.60
2019-02-17T02:17:48.509Z,7.50
2019-02-17T02:20:18.328Z,7.30
2019-02-17T02:22:48.281Z,7.10
2019-02-17T02:25:19.386Z,7.00
2019-02-17T02:27:49.686Z,6.90
2019-02-17T02:30:19.991Z,6.80
2019-02-17T02:32:49.966Z,6.80
2019-02-17T02:35:20.008Z,6.70
2019-02-17T02:37:49.928Z,6.70
2019-02-17T02:40:20.170Z,6.70
2019-02-17T02:42:50.280Z,6.60
2019-02-17T02:45:20.234Z,6.50
2019-02-17T02:47:50.420Z,6.50
2019-02-17T02:50:20.710Z,6.40
2019-02-17T02:52:50.813Z,6.40
2019-02-17T02:55:21.108Z,6.30
2019-02-17T02:57:51.164Z,6.30
2019-02-17T03:00:21.442Z,6.20
2019-02-17T03:02:51.340Z,6.20
2019-02-17T03:05:21.591Z,6.30
2019-02-17T03:07:51.744Z,6.30
2019-02-17T03:10:21.672Z,6.30
2019-02-17T03:12:51.911Z,6.40
2019-02-17T03:15:22.041Z,6.50
2019-02-17T03:17:52.379Z,6.50
2019-02-17T03:20:22.321Z,6.60
2019-02-17T03:22:52.430Z,6.60
2019-02-17T03:25:22.856Z,6.70
2019-02-17T03:27:53.027Z,6.80
2019-02-17T03:30:23.552Z,6.90
2019-02-17T03:32:55.325Z,7.00
2019-02-17T03:35:25.327Z,7.00
2019-02-17T03:37:55.524Z,7.00
2019-02-17T03:40:29.193Z,7.00
2019-02-17T03:42:59.518Z,7.00
2019-02-17T03:45:29.629Z,7.00
2019-02-17T03:47:59.856Z,7.10
2019-02-17T03:50:30.035Z,7.10
2019-02-17T03:53:01.163Z,7.10
2019-02-17T03:55:31.674Z,7.10
2019-02-17T03:58:01.812Z,7.10
2019-02-17T04:00:32.286Z,7.10
2019-02-17T04:03:02.811Z,6.90
2019-02-17T04:05:33.186Z,6.90
2019-02-17T04:08:03.607Z,6.80
2019-02-17T04:10:33.675Z,6.90
2019-02-17T04:13:03.869Z,6.90
2019-02-17T04:15:34.243Z,6.90
2019-02-17T04:18:04.126Z,6.90
2019-02-17T04:20:34.151Z,6.90
2019-02-17T04:23:05.673Z,6.90
2019-02-17T04:25:35.770Z,7.00
2019-02-17T04:28:06.211Z,7.00
2019-02-17T04:30:36.587Z,7.00
2019-02-17T04:33:06.829Z,7.00
2019-02-17T04:35:37.042Z,7.00
2019-02-17T04:38:07.287Z,7.00
2019-02-17T04:40:37.870Z,7.00
2019-02-17T04:43:07.794Z,7.00
2019-02-17T04:45:38.426Z,7.00
2019-02-17T04:48:08.367Z,7.10
2019-02-17T04:50:38.611Z,7.10
2019-02-17T04:53:08.913Z,7.10
2019-02-17T04:55:39.315Z,7.10
2019-02-17T04:58:09.311Z,7.10
2019-02-17T05:00:40.616Z,7.00
2019-02-17T05:03:10.848Z,7.00
2019-02-17T05:05:41.497Z,7.00
2019-02-17T05:08:11.594Z,7.00
2019-02-17T05:10:41.661Z,6.90
2019-02-17T05:13:11.990Z,6.90
2019-02-17T05:15:42.285Z,6.80
2019-02-17T05:18:13.168Z,6.70
2019-02-17T05:20:46.336Z,6.60
2019-02-17T05:23:19.730Z,6.50
2019-02-17T05:25:50.987Z,6.50
2019-02-17T05:28:21.306Z,6.40
2019-02-17T05:30:53.313Z,6.30
2019-02-17T05:33:24.234Z,6.20
2019-02-17T05:35:54.822Z,6.10
2019-02-17T05:38:28.848Z,6.10
2019-02-17T05:41:02.171Z,6.00
2019-02-17T05:43:35.373Z,5.90
2019-02-17T05:46:06.333Z,5.80
2019-02-17T05:48:36.278Z,5.80
2019-02-17T05:51:06.334Z,5.70
2019-02-17T05:53:36.512Z,5.70
2019-02-17T05:56:06.778Z,5.60
2019-02-17T05:58:38.332Z,5.50
2019-02-17T06:01:08.478Z,5.50
2019-02-17T06:03:40.335Z,5.30
2019-02-17T06:06:15.764Z,5.20
2019-02-17T06:08:45.899Z,5.10
2019-02-17T06:11:16.378Z,5.00
2019-02-17T06:13:49.940Z,4.90
2019-02-17T06:16:20.071Z,4.90
2019-02-17T06:18:53.896Z,4.80
2019-02-17T06:21:26.429Z,4.70
2019-02-17T06:24:05.015Z,4.70
2019-02-17T06:26:38.661Z,4.60
2019-02-17T06:29:09.203Z,4.60
2019-02-17T06:31:45.084Z,4.60
2019-02-17T06:34:15.312Z,4.50
2019-02-17T06:36:46.728Z,4.50
2019-02-17T06:39:16.749Z,4.40
2019-02-17T06:41:47.156Z,4.40
2019-02-17T06:44:20.165Z,4.30
2019-02-17T06:46:58.475Z,4.30
2019-02-17T06:49:28.756Z,4.30
2019-02-17T06:51:59.513Z,4.30
2019-02-17T06:54:31.273Z,4.30
2019-02-17T06:57:24.132Z,4.20
2019-02-17T07:00:09.891Z,4.20
2019-02-17T07:02:40.118Z,4.20
2019-02-17T07:05:23.010Z,4.10
2019-02-17T07:07:52.966Z,4.10
2019-02-17T07:10:23.067Z,4.10
2019-02-17T07:12:52.659Z,4.20
2019-02-17T07:15:22.245Z,4.20
2019-02-17T07:17:51.876Z,4.30
2019-02-17T07:20:21.552Z,4.30
2019-02-17T07:22:51.250Z,4.50
2019-02-17T07:25:29.731Z,4.50
2019-02-17T07:27:58.544Z,4.60
2019-02-17T07:30:28.693Z,4.60
2019-02-17T07:32:58.989Z,4.60
2019-02-17T07:35:29.049Z,4.60
2019-02-17T07:38:07.608Z,4.50
2019-02-17T07:40:37.404Z,4.50
2019-02-17T07:43:12.962Z,4.50
2019-02-17T07:45:41.007Z,4.50
2019-02-17T07:48:11.101Z,4.50
2019-02-17T07:51:05.628Z,4.60
2019-02-17T07:53:39.070Z,4.60
2019-02-17T07:56:10.683Z,4.60
2019-02-17T07:58:40.989Z,4.70
2019-02-17T08:01:11.950Z,4.70
2019-02-17T08:03:43.053Z,4.80
2019-02-17T08:06:13.790Z,4.80
2019-02-17T08:08:43.825Z,4.80
2019-02-17T08:11:21.089Z,4.80
2019-02-17T08:13:51.525Z,4.80
2019-02-17T08:16:21.705Z,4.80
2019-02-17T08:18:56.370Z,4.80
2019-02-17T08:21:26.775Z,4.70
2019-02-17T08:24:01.373Z,4.70
2019-02-17T08:26:31.716Z,4.70
2019-02-17T08:29:03.518Z,4.70
2019-02-17T08:31:33.716Z,4.70
2019-02-17T08:34:04.921Z,4.70
2019-02-17T08:36:35.042Z,4.70
2019-02-17T08:39:05.639Z,4.70
2019-02-17T08:41:40.736Z,4.70
2019-02-17T08:44:11.122Z,4.80
2019-02-17T08:46:41.338Z,4.80
2019-02-17T08:49:18.669Z,4.90
2019-02-17T08:51:52.531Z,5.00
2019-02-17T08:54:22.865Z,5.10
2019-02-17T08:57:11.756Z,5.20
2019-02-17T08:59:43.915Z,5.20
2019-02-17T09:02:16.358Z,5.30
2019-02-17T09:04:49.493Z,5.40
2019-02-17T09:07:23.821Z,5.50
2019-02-17T09:10:03.096Z,5.60
2019-02-17T09:12:33.581Z,5.60
2019-02-17T09:15:03.942Z,5.70
2019-02-17T09:17:34.185Z,5.70
2019-02-17T09:20:05.185Z,5.80
2019-02-17T09:22:37.101Z,5.80
2019-02-17T09:25:08.799Z,5.90
2019-02-17T09:27:38.887Z,6.00
2019-02-17T09:30:14.571Z,6.00
2019-02-17T09:32:44.682Z,6.10
2019-02-17T09:35:17.911Z,6.10
2019-02-17T09:37:52.025Z,6.20
2019-02-17T09:43:14.177Z,6.30
2019-02-17T09:45:44.662Z,6.40
2019-02-17T09:48:17.112Z,6.40
2019-02-17T09:50:58.654Z,6.50
2019-02-17T09:53:32.229Z,6.60
2019-02-17T09:56:02.332Z,6.60
2019-02-17T09:58:33.035Z,6.70
2019-02-17T10:01:03.159Z,6.80
2019-02-17T10:03:33.557Z,6.90
2019-02-17T10:06:05.310Z,6.90
2019-02-17T10:08:35.751Z,7.00
2019-02-17T10:11:05.905Z,7.00
2019-02-17T10:13:36.022Z,7.10
2019-02-17T10:16:08.086Z,7.10
2019-02-17T10:18:41.817Z,7.20
2019-02-17T10:21:11.966Z,7.30
2019-02-17T10:23:42.512Z,7.40
2019-02-17T10:26:12.622Z,7.50
2019-02-17T10:28:42.889Z,7.50
2019-02-17T10:31:13.145Z,7.60
2019-02-17T10:33:43.204Z,7.70
2019-02-17T10:36:15.731Z,7.80
2019-02-17T10:38:46.934Z,7.80
2019-02-17T10:41:21.323Z,7.90
2019-02-17T10:43:51.722Z,7.90
2019-02-17T10:46:21.878Z,8.00
2019-02-17T10:48:52.349Z,8.10
2019-02-17T10:51:22.859Z,8.20
2019-02-17T10:53:52.859Z,8.30
2019-02-17T10:56:22.782Z,8.30
2019-02-17T10:58:53.020Z,8.40
2019-02-17T11:01:24.865Z,8.50
2019-02-17T11:04:03.197Z,8.60
2019-02-17T11:06:34.711Z,8.70
2019-02-17T11:09:16.738Z,8.70
2019-02-17T11:11:46.846Z,8.80
2019-02-17T11:14:16.803Z,8.80
2019-02-17T11:16:49.149Z,8.90
2019-02-17T11:19:19.727Z,8.90
2019-02-17T11:21:50.155Z,9.00
2019-02-17T11:24:21.606Z,9.00
2019-02-17T11:26:58.909Z,9.10
2019-02-17T11:29:29.069Z,9.20
2019-02-17T11:32:00.917Z,9.30
2019-02-17T11:34:31.303Z,9.30
2019-02-17T11:37:01.801Z,9.40
2019-02-17T11:39:32.204Z,9.40
2019-02-17T11:42:02.556Z,9.50
2019-02-17T11:44:32.763Z,9.50
2019-02-17T11:47:03.448Z,9.60
2019-02-17T11:49:33.520Z,9.60
2019-02-17T11:52:03.612Z,9.70
2019-02-17T11:54:33.722Z,9.70
2019-02-17T11:57:03.822Z,9.70
2019-02-17T11:59:33.819Z,9.80
2019-02-17T12:02:04.387Z,9.80
2019-02-17T12:04:34.381Z,9.80
2019-02-17T12:07:04.680Z,9.90
2019-02-17T12:09:34.705Z,9.90
2019-02-17T12:12:07.278Z,10.00
2019-02-17T12:14:37.259Z,10.10
2019-02-17T12:17:07.263Z,10.10
2019-02-17T12:19:39.866Z,10.20
2019-02-17T12:22:15.657Z,10.30
2019-02-17T12:24:54.205Z,10.30
2019-02-17T12:27:41.905Z,10.40
2019-02-17T12:30:15.769Z,10.40
2019-02-17T12:32:47.126Z,10.40
2019-02-17T12:35:19.657Z,10.40
2019-02-17T12:37:49.770Z,10.50
2019-02-17T12:40:19.849Z,10.50
2019-02-17T12:42:51.084Z,10.50
2019-02-17T12:45:21.655Z,10.50
2019-02-17T12:47:58.144Z,10.60
2019-02-17T12:50:23.995Z,10.60
2019-02-17T12:52:56.430Z,10.70
2019-02-17T12:55:28.093Z,10.70
2019-02-17T12:57:58.610Z,10.80
2019-02-17T13:00:30.969Z,10.80
2019-02-17T13:03:05.708Z,10.90
2019-02-17T13:05:37.483Z,10.90
2019-02-17T13:08:08.202Z,10.90
2019-02-17T13:10:38.834Z,11.00
2019-02-17T13:13:11.676Z,11.00
2019-02-17T13:15:41.607Z,11.00
2019-02-17T13:18:11.823Z,11.10
2019-02-17T13:20:42.167Z,11.10
2019-02-17T13:23:12.427Z,11.10
2019-02-17T13:25:43.296Z,11.20
2019-02-17T13:28:13.408Z,11.30
2019-02-17T13:30:43.602Z,11.30
2019-02-17T13:33:13.607Z,11.40
2019-02-17T13:35:44.125Z,11.50
2019-02-17T13:38:14.378Z,11.60
2019-02-17T13:40:44.517Z,11.60
2019-02-17T13:43:18.565Z,11.60
2019-02-17T13:45:50.476Z,11.60
2019-02-17T13:48:20.665Z,11.60
2019-02-17T13:50:50.677Z,11.60
2019-02-17T13:53:21.931Z,11.70
2019-02-17T13:55:55.170Z,11.70
2019-02-17T13:58:25.259Z,11.80
2019-02-17T14:00:55.390Z,11.80
2019-02-17T14:03:25.746Z,11.80
2019-02-17T14:05:56.428Z,11.80
2019-02-17T14:08:26.923Z,11.80
2019-02-17T14:11:02.190Z,11.80
2019-02-17T14:13:32.228Z,11.80
2019-02-17T14:16:02.406Z,11.80
2019-02-17T14:18:32.393Z,11.80
2019-02-17T14:21:02.379Z,11.80
2019-02-17T14:23:32.353Z,11.80
2019-02-17T14:26:02.303Z,11.80
2019-02-17T14:28:34.356Z,12.00
2019-02-17T14:31:04.593Z,12.00
2019-02-17T14:33:34.632Z,12.10
2019-02-17T14:36:04.506Z,12.20
2019-02-17T14:38:34.807Z,12.30
2019-02-17T14:41:05.047Z,12.30
2019-02-17T14:43:35.254Z,12.30
2019-02-17T14:46:05.354Z,12.30
2019-02-17T14:48:35.709Z,12.30
2019-02-17T14:51:06.307Z,12.30
2019-02-17T14:53:36.505Z,12.30
2019-02-17T14:56:07.022Z,12.30
2019-02-17T14:58:37.027Z,12.20
2019-02-17T15:01:07.508Z,12.20
2019-02-17T15:03:37.507Z,12.20
2019-02-17T15:06:07.334Z,12.10
2019-02-17T15:08:37.226Z,12.10
2019-02-17T15:11:07.243Z,12.10
2019-02-17T15:13:37.245Z,12.10
2019-02-17T15:16:07.366Z,12.10
2019-02-17T15:18:37.630Z,12.10
2019-02-17T15:21:08.169Z,12.00
2019-02-17T15:23:38.129Z,12.00
2019-02-17T15:26:08.169Z,11.90
2019-02-17T15:28:38.229Z,11.80
2019-02-17T15:31:08.670Z,11.80
2019-02-17T15:33:38.893Z,11.70
2019-02-17T15:36:12.354Z,11.60
2019-02-17T15:38:42.626Z,11.60
2019-02-17T15:41:13.016Z,11.50
2019-02-17T15:43:43.073Z,11.40
2019-02-17T15:46:13.413Z,11.40
2019-02-17T15:48:43.695Z,11.30
2019-02-17T15:51:13.873Z,11.20
2019-02-17T15:53:43.973Z,11.20
2019-02-17T15:56:13.976Z,11.10
2019-02-17T15:58:45.048Z,11.10
2019-02-17T16:01:15.492Z,11.00
2019-02-17T16:03:47.353Z,10.90
2019-02-17T16:06:45.567Z,10.90
2019-02-17T16:09:15.506Z,10.90
2019-02-17T16:11:45.770Z,10.80
2019-02-17T16:14:16.203Z,10.70
2019-02-17T16:16:46.961Z,10.70
2019-02-17T16:19:17.083Z,10.60
2019-02-17T16:21:47.442Z,10.50
2019-02-17T16:24:17.471Z,10.50
2019-02-17T16:26:47.507Z,10.50
2019-02-17T16:29:18.058Z,10.40
2019-02-17T16:31:49.193Z,10.30
2019-02-17T16:34:19.248Z,10.30
2019-02-17T16:36:49.336Z,10.30
2019-02-17T16:39:19.876Z,10.10
2019-02-17T16:41:49.956Z,10.10
2019-02-17T16:44:20.008Z,10.10
2019-02-17T16:46:50.284Z,10.00
2019-02-17T16:49:20.695Z,10.00
2019-02-17T16:51:50.625Z,10.00
2019-02-17T16:54:20.895Z,9.90
2019-02-17T16:56:50.858Z,9.90
2019-02-17T16:59:23.690Z,9.80
2019-02-17T17:01:53.634Z,9.80
2019-02-17T17:04:23.652Z,9.70
2019-02-17T17:06:56.198Z,9.60
2019-02-17T17:09:26.311Z,9.50
2019-02-17T17:11:56.327Z,9.50
2019-02-17T17:14:28.358Z,9.50
2019-02-17T17:16:58.514Z,9.50
2019-02-17T17:19:28.515Z,9.40
2019-02-17T17:21:59.043Z,9.30
2019-02-17T17:24:29.209Z,9.30
2019-02-17T17:26:59.586Z,9.20
2019-02-17T17:29:35.179Z,9.20
2019-02-17T17:32:06.523Z,9.20
2019-02-17T17:34:36.666Z,9.10
2019-02-17T17:37:09.094Z,9.10
2019-02-17T17:39:39.142Z,9.10
2019-02-17T17:42:09.081Z,9.10
2019-02-17T17:44:40.950Z,9.10
2019-02-17T17:47:11.485Z,9.10
2019-02-17T17:49:41.622Z,9.00
2019-02-17T17:52:11.809Z,9.00
2019-02-17T17:54:42.118Z,8.90
2019-02-17T17:57:13.790Z,8.80
2019-02-17T17:59:43.710Z,8.80
2019-02-17T18:02:13.926Z,8.70
2019-02-17T18:04:44.101Z,8.60
2019-02-17T18:07:14.168Z,8.60
2019-02-17T18:09:44.157Z,8.50
2019-02-17T18:12:14.336Z,8.50
2019-02-17T18:14:44.759Z,8.40
2019-02-17T18:17:15.122Z,8.30
2019-02-17T18:19:45.355Z,8.20
2019-02-17T18:22:15.492Z,8.10
2019-02-17T18:24:46.482Z,8.10
2019-02-17T18:27:16.703Z,8.10
2019-02-17T18:29:46.684Z,8.10
2019-02-17T18:32:17.381Z,8.10
2019-02-17T18:34:48.225Z,8.10
2019-02-17T18:37:18.394Z,8.00
2019-02-17T18:39:48.742Z,7.90
2019-02-17T18:42:19.060Z,7.90
2019-02-17T18:44:48.990Z,7.80
2019-02-17T18:47:19.986Z,7.80
2019-02-17T18:49:50.156Z,7.80
2019-02-17T18:52:20.219Z,7.80
2019-02-17T18:54:52.213Z,7.70
2019-02-17T18:57:24.327Z,7.60
2019-02-17T18:59:57.037Z,7.60
2019-02-17T19:02:26.884Z,7.50
2019-02-17T19:04:57.036Z,7.50
2019-02-17T19:07:27.037Z,7.50
2019-02-17T19:09:57.029Z,7.40
2019-02-17T19:12:28.390Z,7.40
2019-02-17T19:14:58.426Z,7.50
2019-02-17T19:17:28.783Z,7.50
2019-02-17T19:19:58.803Z,7.50
2019-02-17T19:22:28.887Z,7.40
2019-02-17T19:24:59.115Z,7.40
2019-02-17T19:27:29.197Z,7.40
2019-02-17T19:29:59.211Z,7.30
2019-02-17T19:32:29.184Z,7.30
2019-02-17T19:34:59.220Z,7.30
2019-02-17T19:37:29.616Z,7.20
2019-02-17T19:39:59.618Z,7.20
2019-02-17T19:42:29.822Z,7.10
2019-02-17T19:45:00.007Z,7.10
2019-02-17T19:47:29.988Z,7.10
2019-02-17T19:50:00.283Z,7.10
2019-02-17T19:52:30.285Z,7.10
2019-02-17T19:55:03.618Z,7.00
2019-02-17T19:57:33.899Z,7.00
2019-02-17T20:00:04.090Z,6.90
2019-02-17T20:02:54.186Z,6.90
2019-02-17T20:05:26.755Z,6.90
2019-02-17T20:07:57.015Z,6.90
2019-02-17T20:10:27.217Z,6.90
2019-02-17T20:12:57.338Z,6.90
2019-02-17T20:15:31.951Z,6.80
2019-02-17T20:18:05.713Z,6.80
2019-02-17T20:20:35.940Z,6.80
2019-02-17T20:23:07.319Z,6.80
2019-02-17T20:25:37.514Z,6.70
2019-02-17T20:28:07.545Z,6.70
2019-02-17T20:30:38.072Z,6.60
2019-02-17T20:33:09.611Z,6.50
2019-02-17T20:35:39.554Z,6.40
2019-02-17T20:38:09.689Z,6.40
2019-02-17T20:40:39.710Z,6.40
2019-02-17T20:43:09.708Z,6.30
2019-02-17T20:45:39.901Z,6.20
2019-02-17T20:48:11.566Z,6.10
2019-02-17T20:50:41.849Z,6.10
2019-02-17T20:53:12.033Z,6.00
2019-02-17T20:55:42.114Z,6.00
2019-02-17T20:58:12.346Z,6.00
2019-02-17T21:00:42.735Z,5.90
2019-02-17T21:03:14.812Z,5.90
2019-02-17T21:05:45.493Z,5.80
2019-02-17T21:08:15.409Z,5.70
2019-02-17T21:10:45.583Z,5.60
2019-02-17T21:13:19.308Z,5.60
2019-02-17T21:15:49.431Z,5.60
2019-02-17T21:18:19.406Z,5.60
2019-02-17T21:20:49.323Z,5.60
2019-02-17T21:23:21.159Z,5.50
2019-02-17T21:26:01.651Z,5.50
2019-02-17T21:28:31.618Z,5.50
2019-02-17T21:31:01.737Z,5.40
2019-02-17T21:33:31.932Z,5.30
2019-02-17T21:36:01.875Z,5.30
2019-02-17T21:38:31.885Z,5.30
2019-02-17T21:41:09.324Z,5.30
2019-02-17T21:43:35.304Z,5.30
2019-02-17T21:46:06.665Z,5.30
2019-02-17T21:48:37.253Z,5.30
2019-02-17T21:51:07.410Z,5.30
2019-02-17T21:53:37.343Z,5.30
2019-02-17T21:56:07.514Z,5.20
2019-02-17T21:58:37.927Z,5.20
2019-02-17T22:01:12.025Z,5.10
2019-02-17T22:03:42.438Z,5.00
2019-02-17T22:06:12.558Z,5.00
2019-02-17T22:08:42.686Z,4.90
2019-02-17T22:11:12.824Z,4.90
2019-02-17T22:13:43.027Z,4.90
2019-02-17T22:16:15.231Z,5.00
2019-02-17T22:18:45.940Z,5.00
2019-02-17T22:21:16.057Z,4.90
2019-02-17T22:23:45.994Z,4.90
2019-02-17T22:26:16.221Z,4.80
2019-02-17T22:28:46.955Z,4.80
2019-02-17T22:31:16.954Z,4.80
2019-02-17T22:33:47.087Z,4.70
2019-02-17T22:36:17.209Z,4.60
2019-02-17T22:38:50.532Z,4.60
2019-02-17T22:41:19.665Z,4.60
2019-02-17T22:43:50.073Z,4.60
2019-02-17T22:46:20.465Z,4.60
2019-02-17T22:48:50.537Z,4.50
2019-02-17T22:51:20.522Z,4.50
2019-02-17T22:53:50.380Z,4.40
2019-02-17T22:56:20.404Z,4.40
2019-02-17T22:58:50.891Z,4.40
2019-02-17T23:01:26.298Z,4.40
2019-02-17T23:03:56.442Z,4.40
2019-02-17T23:06:26.578Z,4.40
2019-02-17T23:08:56.785Z,4.40
2019-02-17T23:11:26.834Z,4.40
2019-02-17T23:13:56.817Z,4.30
2019-02-17T23:16:26.941Z,4.30
2019-02-17T23:18:56.777Z,4.30
2019-02-17T23:21:26.859Z,4.30
2019-02-17T23:23:56.829Z,4.20
2019-02-17T23:26:27.173Z,4.20
2019-02-17T23:28:57.323Z,4.10
2019-02-17T23:31:27.543Z,4.10
2019-02-17T23:33:57.570Z,4.10
2019-02-17T23:36:27.767Z,4.10
2019-02-17T23:38:58.056Z,4.10
2019-02-17T23:41:28.126Z,4.00
2019-02-17T23:44:00.411Z,4.00
2019-02-17T23:46:30.675Z,4.00
2019-02-17T23:49:00.893Z,4.00
2019-02-17T23:51:30.983Z,4.00
2019-02-17T23:54:01.126Z,4.00
2019-02-17T23:56:31.198Z,4.00
2019-02-17T23:59:01.292Z,4.00
